Moby Baby — ICEM — position and weather

sailwx.info

Track history (hours):
 
Tides and Currents Weather Stations Pressure Air Temp Water Temp Dewpoint Dewpoint Depression Visibility Wind Speed Wind Dir Waves Ship Positions

Moby Baby

Last reported at 2014-Jul-28 19:33 UTC. Time now 2014-Jul-28 22:33 UTC.
Position N 42°49' E 010°19'.

Length 99 m; draft 4.5 m.

Type: Ship. MMSI: 247049900.

Date/timePositionNaut miles runAvg speedWind from/ knotsBaromVisibWave heightAir tempDewpointWater temp
2014-Jul-28 19:33N 42°49' E 010°19'7 1.6
2014-Jul-28 15:32N 42°53' E 010°26'5 4.2
2014-Jul-28 14:24N 42°54' E 010°32'1113.2
2014-Jul-28 13:33N 42°49' E 010°19'8 7.4
2014-Jul-28 12:31N 42°54' E 010°27'7 1.2
2014-Jul-28 07:07N 42°49' E 010°21'5 2.3
2014-Jul-28 05:04N 42°53' E 010°25'6 5.8
2014-Jul-28 04:05N 42°49' E 010°19'0 0.0
2014-Jul-28 02:29N 42°49' E 010°19'0 0.0
2014-Jul-28 01:33N 42°49' E 010°19'0 0.0
2014-Jul-28 00:14N 42°49' E 010°19'0 0.0
2014-Jul-27 23:32N 42°49' E 010°19'0 0.0
2014-Jul-27 21:21N 42°49' E 010°19'0 0.0
2014-Jul-27 20:33N 42°49' E 010°19'0 0.1
2014-Jul-27 19:33N 42°49' E 010°19'13 9.1
2014-Jul-27 18:09N 42°56' E 010°34'813.5
2014-Jul-27 17:32N 42°52' E 010°24'2 1.1
2014-Jul-27 15:33N 42°53' E 010°26'6 6.0
2014-Jul-27 14:33N 42°56' E 010°33'12 1.6
2014-Jul-27 07:09N 42°49' E 010°21'3 0.3
2014-Jul-26 19:30N 42°52' E 010°23'6 4.4
2014-Jul-26 18:11N 42°54' E 010°30'914.5
2014-Jul-26 17:33N 42°49' E 010°20'7 3.6
2014-Jul-26 15:33N 42°53' E 010°27'1 0.1
2014-Jul-26 05:16N 42°54' E 010°29'8 0.8
2014-Jul-25 19:31N 42°49' E 010°20'0 0.0
2014-Jul-25 13:09N 42°49' E 010°21'712.2
2014-Jul-25 12:33N 42°54' E 010°28'3 1.1
2014-Jul-25 09:23N 42°54' E 010°32'11 5.0
2014-Jul-25 07:14N 42°48' E 010°20'0 0.0
2014-Jul-24 21:14N 42°49' E 010°19'0 0.0
2014-Jul-24 20:33N 42°49' E 010°19'0 0.2
2014-Jul-24 19:32N 42°49' E 010°20'13 8.9
2014-Jul-24 18:06N 42°56' E 010°34'813.9
2014-Jul-24 17:33N 42°53' E 010°24'5 4.3
2014-Jul-24 16:20N 42°49' E 010°20'1111.8
2014-Jul-24 15:26N 42°55' E 010°32'1 0.6
2014-Jul-24 14:26N 42°54' E 010°32'9 7.2
2014-Jul-24 13:08N 42°49' E 010°21'1 0.1
2014-Jul-24 07:11N 42°49' E 010°20'10 5.6
2014-Jul-24 05:21N 42°54' E 010°32'1113.3
2014-Jul-24 04:32N 42°49' E 010°19'0 0.1
2014-Jul-24 03:33N 42°49' E 010°19'0 0.0
2014-Jul-24 02:25N 42°49' E 010°19'0 0.0
2014-Jul-24 01:19N 42°49' E 010°19'0 0.0
2014-Jul-24 00:33N 42°49' E 010°19'0 0.0
2014-Jul-23 23:33N 42°49' E 010°19'0 0.0
2014-Jul-23 22:13N 42°49' E 010°19'0 0.0
2014-Jul-23 20:30N 42°49' E 010°19'0 0.0
2014-Jul-23 19:33N 42°49' E 010°19'1212.6
2014-Jul-23 18:33N 42°56' E 010°33'8 7.7
2014-Jul-23 17:34N 42°52' E 010°24'5 4.0
2014-Jul-23 16:20N 42°49' E 010°20'7 8.9
2014-Jul-23 15:30N 42°53' E 010°27'5 5.4
2014-Jul-23 14:32N 42°56' E 010°33'1312.9
2014-Jul-23 13:33N 42°49' E 010°19'8 7.8
2014-Jul-23 12:33N 42°54' E 010°28'4 3.3
2014-Jul-23 11:15N 42°56' E 010°33'0 0.0
2014-Jul-23 10:33N 42°56' E 010°33'1 0.5
2014-Jul-23 09:33N 42°56' E 010°34'13 9.2
2014-Jul-23 08:11N 42°49' E 010°19'0 0.0
2014-Jul-23 07:23N 42°49' E 010°19'910.9
2014-Jul-23 06:33N 42°54' E 010°29'3 3.4
2014-Jul-23 05:34N 42°56' E 010°33'13 5.6
2014-Jul-23 03:19N 42°49' E 010°19'0 0.0
2014-Jul-23 02:32N 42°49' E 010°19'0 0.0
2014-Jul-23 01:33N 42°49' E 010°19'0 0.0
2014-Jul-23 00:30N 42°49' E 010°19'0 0.0
2014-Jul-22 23:30N 42°49' E 010°19'0 0.0
2014-Jul-22 21:33N 42°49' E 010°19'0 0.0
2014-Jul-22 20:33N 42°49' E 010°19'0 0.3
2014-Jul-22 19:33N 42°48' E 010°20'13 9.3
2014-Jul-22 18:12N 42°56' E 010°33'813.0
2014-Jul-22 17:33N 42°52' E 010°23'2 0.9
2014-Jul-22 15:34N 42°53' E 010°25'7 6.6
2014-Jul-22 14:34N 42°56' E 010°34'1312.6
2014-Jul-22 13:33N 42°49' E 010°19'12 9.6
2014-Jul-22 12:19N 42°55' E 010°33'11 2.1
2014-Jul-22 07:06N 42°49' E 010°21'1114.3
2014-Jul-22 06:21N 42°55' E 010°33'12 0.3
2014-Jul-20 19:33N 42°49' E 010°19'1312.7
2014-Jul-20 18:34N 42°56' E 010°33'8 7.5
2014-Jul-20 17:34N 42°53' E 010°24'5 5.3
2014-Jul-20 16:33N 42°49' E 010°19'7 6.6
2014-Jul-20 15:34N 42°53' E 010°26'5 4.4
2014-Jul-20 14:26N 42°54' E 010°32'1112.2
2014-Jul-20 13:32N 42°49' E 010°19'7 7.1
2014-Jul-20 12:33N 42°53' E 010°26'5 1.5
2014-Jul-20 09:25N 42°54' E 010°32'11 5.0
2014-Jul-20 07:15N 42°49' E 010°19'912.6
2014-Jul-20 06:33N 42°54' E 010°29'4 3.8
2014-Jul-20 05:33N 42°56' E 010°33'1312.5
2014-Jul-20 04:33N 42°49' E 010°19'0 0.1
2014-Jul-20 03:33N 42°49' E 010°19'0 0.0
2014-Jul-20 02:33N 42°49' E 010°19'0 0.0
2014-Jul-20 01:33N 42°49' E 010°19'0 0.0
2014-Jul-20 00:33N 42°49' E 010°19'0 0.0
2014-Jul-19 21:31N 42°49' E 010°19'3 1.5
2014-Jul-19 19:33N 42°51' E 010°22'10 8.6
2014-Jul-19 18:26N 42°56' E 010°33'1312.9
2014-Jul-19 17:27N 42°49' E 010°19'910.0
2014-Jul-19 16:34N 42°54' E 010°29'1 1.3
2014-Jul-19 15:29N 42°53' E 010°28'7 7.2
2014-Jul-19 14:26N 42°49' E 010°19'10 5.1
2014-Jul-19 12:34N 42°54' E 010°30'10 9.6
2014-Jul-19 11:33N 42°49' E 010°19'1010.3
2014-Jul-19 10:33N 42°54' E 010°31'2 2.4
2014-Jul-19 09:33N 42°56' E 010°34'1312.6
2014-Jul-19 08:33N 42°49' E 010°19'0 0.0
2014-Jul-19 07:33N 42°49' E 010°19'9 9.2
2014-Jul-19 06:33N 42°54' E 010°30'3 3.5
2014-Jul-19 05:34N 42°56' E 010°33'1312.6
2014-Jul-19 04:33N 42°49' E 010°19'0 0.1
2014-Jul-19 03:33N 42°49' E 010°19'0 0.0
2014-Jul-19 02:33N 42°49' E 010°19'0 0.0
2014-Jul-19 01:31N 42°49' E 010°19'0 0.0
2014-Jul-19 00:29N 42°49' E 010°19'0 0.0
2014-Jul-18 23:33N 42°49' E 010°19'0 0.0
2014-Jul-18 22:15N 42°49' E 010°19'0 0.0
2014-Jul-18 21:33N 42°49' E 010°19'0 0.0
2014-Jul-18 20:26N 42°49' E 010°19'0 0.6
2014-Jul-18 19:34N 42°48' E 010°20'  
Track history (hours):
 
Tides and Currents Weather Stations Pressure Air Temp Water Temp Dewpoint Dewpoint Depression Visibility Wind Speed Wind Dir Waves Ship Positions

Moby Baby

Last reported at 2014-Jul-28 19:33 UTC. Time now 2014-Jul-28 22:33 UTC.
Position N 42°49' E 010°19'.

Length 99 m; draft 4.5 m.

Type: Ship. MMSI: 247049900.

Date/timePositionNaut miles runAvg speedWind from/ knotsBaromVisibWave heightAir tempDewpointWater temp
2014-Jul-28 19:33N 42°49' E 010°19'7 1.6
2014-Jul-28 15:32N 42°53' E 010°26'5 4.2
2014-Jul-28 14:24N 42°54' E 010°32'1113.2
2014-Jul-28 13:33N 42°49' E 010°19'8 7.4
2014-Jul-28 12:31N 42°54' E 010°27'7 1.2
2014-Jul-28 07:07N 42°49' E 010°21'5 2.3
2014-Jul-28 05:04N 42°53' E 010°25'6 5.8
2014-Jul-28 04:05N 42°49' E 010°19'0 0.0
2014-Jul-28 02:29N 42°49' E 010°19'0 0.0
2014-Jul-28 01:33N 42°49' E 010°19'0 0.0
2014-Jul-28 00:14N 42°49' E 010°19'0 0.0
2014-Jul-27 23:32N 42°49' E 010°19'0 0.0
2014-Jul-27 21:21N 42°49' E 010°19'0 0.0
2014-Jul-27 20:33N 42°49' E 010°19'0 0.1
2014-Jul-27 19:33N 42°49' E 010°19'13 9.1
2014-Jul-27 18:09N 42°56' E 010°34'813.5
2014-Jul-27 17:32N 42°52' E 010°24'2 1.1
2014-Jul-27 15:33N 42°53' E 010°26'6 6.0
2014-Jul-27 14:33N 42°56' E 010°33'12 1.6
2014-Jul-27 07:09N 42°49' E 010°21'3 0.3
2014-Jul-26 19:30N 42°52' E 010°23'6 4.4
2014-Jul-26 18:11N 42°54' E 010°30'914.5
2014-Jul-26 17:33N 42°49' E 010°20'7 3.6
2014-Jul-26 15:33N 42°53' E 010°27'1 0.1
2014-Jul-26 05:16N 42°54' E 010°29'8 0.8
2014-Jul-25 19:31N 42°49' E 010°20'0 0.0
2014-Jul-25 13:09N 42°49' E 010°21'712.2
2014-Jul-25 12:33N 42°54' E 010°28'3 1.1
2014-Jul-25 09:23N 42°54' E 010°32'11 5.0
2014-Jul-25 07:14N 42°48' E 010°20'0 0.0
2014-Jul-24 21:14N 42°49' E 010°19'0 0.0
2014-Jul-24 20:33N 42°49' E 010°19'0 0.2
2014-Jul-24 19:32N 42°49' E 010°20'13 8.9
2014-Jul-24 18:06N 42°56' E 010°34'813.9
2014-Jul-24 17:33N 42°53' E 010°24'5 4.3
2014-Jul-24 16:20N 42°49' E 010°20'1111.8
2014-Jul-24 15:26N 42°55' E 010°32'1 0.6
2014-Jul-24 14:26N 42°54' E 010°32'9 7.2
2014-Jul-24 13:08N 42°49' E 010°21'1 0.1
2014-Jul-24 07:11N 42°49' E 010°20'10 5.6
2014-Jul-24 05:21N 42°54' E 010°32'1113.3
2014-Jul-24 04:32N 42°49' E 010°19'0 0.1
2014-Jul-24 03:33N 42°49' E 010°19'0 0.0
2014-Jul-24 02:25N 42°49' E 010°19'0 0.0
2014-Jul-24 01:19N 42°49' E 010°19'0 0.0
2014-Jul-24 00:33N 42°49' E 010°19'0 0.0
2014-Jul-23 23:33N 42°49' E 010°19'0 0.0
2014-Jul-23 22:13N 42°49' E 010°19'0 0.0
2014-Jul-23 20:30N 42°49' E 010°19'0 0.0
2014-Jul-23 19:33N 42°49' E 010°19'1212.6
2014-Jul-23 18:33N 42°56' E 010°33'8 7.7
2014-Jul-23 17:34N 42°52' E 010°24'5 4.0
2014-Jul-23 16:20N 42°49' E 010°20'7 8.9
2014-Jul-23 15:30N 42°53' E 010°27'5 5.4
2014-Jul-23 14:32N 42°56' E 010°33'1312.9
2014-Jul-23 13:33N 42°49' E 010°19'8 7.8
2014-Jul-23 12:33N 42°54' E 010°28'4 3.3
2014-Jul-23 11:15N 42°56' E 010°33'0 0.0
2014-Jul-23 10:33N 42°56' E 010°33'1 0.5
2014-Jul-23 09:33N 42°56' E 010°34'13 9.2
2014-Jul-23 08:11N 42°49' E 010°19'0 0.0
2014-Jul-23 07:23N 42°49' E 010°19'910.9
2014-Jul-23 06:33N 42°54' E 010°29'3 3.4
2014-Jul-23 05:34N 42°56' E 010°33'13 5.6
2014-Jul-23 03:19N 42°49' E 010°19'0 0.0
2014-Jul-23 02:32N 42°49' E 010°19'0 0.0
2014-Jul-23 01:33N 42°49' E 010°19'0 0.0
2014-Jul-23 00:30N 42°49' E 010°19'0 0.0
2014-Jul-22 23:30N 42°49' E 010°19'0 0.0
2014-Jul-22 21:33N 42°49' E 010°19'0 0.0
2014-Jul-22 20:33N 42°49' E 010°19'0 0.3
2014-Jul-22 19:33N 42°48' E 010°20'13 9.3
2014-Jul-22 18:12N 42°56' E 010°33'813.0
2014-Jul-22 17:33N 42°52' E 010°23'2 0.9
2014-Jul-22 15:34N 42°53' E 010°25'7 6.6
2014-Jul-22 14:34N 42°56' E 010°34'1312.6
2014-Jul-22 13:33N 42°49' E 010°19'12 9.6
2014-Jul-22 12:19N 42°55' E 010°33'11 2.1
2014-Jul-22 07:06N 42°49' E 010°21'1114.3
2014-Jul-22 06:21N 42°55' E 010°33'12 0.3
2014-Jul-20 19:33N 42°49' E 010°19'1312.7
2014-Jul-20 18:34N 42°56' E 010°33'8 7.5
2014-Jul-20 17:34N 42°53' E 010°24'5 5.3
2014-Jul-20 16:33N 42°49' E 010°19'7 6.6
2014-Jul-20 15:34N 42°53' E 010°26'5 4.4
2014-Jul-20 14:26N 42°54' E 010°32'1112.2
2014-Jul-20 13:32N 42°49' E 010°19'7 7.1
2014-Jul-20 12:33N 42°53' E 010°26'5 1.5
2014-Jul-20 09:25N 42°54' E 010°32'11 5.0
2014-Jul-20 07:15N 42°49' E 010°19'912.6
2014-Jul-20 06:33N 42°54' E 010°29'4 3.8
2014-Jul-20 05:33N 42°56' E 010°33'1312.5
2014-Jul-20 04:33N 42°49' E 010°19'0 0.1
2014-Jul-20 03:33N 42°49' E 010°19'0 0.0
2014-Jul-20 02:33N 42°49' E 010°19'0 0.0
2014-Jul-20 01:33N 42°49' E 010°19'0 0.0
2014-Jul-20 00:33N 42°49' E 010°19'0 0.0
2014-Jul-19 21:31N 42°49' E 010°19'3 1.5
2014-Jul-19 19:33N 42°51' E 010°22'10 8.6
2014-Jul-19 18:26N 42°56' E 010°33'1312.9
2014-Jul-19 17:27N 42°49' E 010°19'910.0
2014-Jul-19 16:34N 42°54' E 010°29'1 1.3
2014-Jul-19 15:29N 42°53' E 010°28'7 7.2
2014-Jul-19 14:26N 42°49' E 010°19'10 5.1
2014-Jul-19 12:34N 42°54' E 010°30'10 9.6
2014-Jul-19 11:33N 42°49' E 010°19'1010.3
2014-Jul-19 10:33N 42°54' E 010°31'2 2.4
2014-Jul-19 09:33N 42°56' E 010°34'1312.6
2014-Jul-19 08:33N 42°49' E 010°19'0 0.0
2014-Jul-19 07:33N 42°49' E 010°19'9 9.2
2014-Jul-19 06:33N 42°54' E 010°30'3 3.5
2014-Jul-19 05:34N 42°56' E 010°33'1312.6
2014-Jul-19 04:33N 42°49' E 010°19'0 0.1
2014-Jul-19 03:33N 42°49' E 010°19'0 0.0
2014-Jul-19 02:33N 42°49' E 010°19'0 0.0
2014-Jul-19 01:31N 42°49' E 010°19'0 0.0
2014-Jul-19 00:29N 42°49' E 010°19'0 0.0
2014-Jul-18 23:33N 42°49' E 010°19'0 0.0
2014-Jul-18 22:15N 42°49' E 010°19'0 0.0
2014-Jul-18 21:33N 42°49' E 010°19'0 0.0
2014-Jul-18 20:26N 42°49' E 010°19'0 0.6
2014-Jul-18 19:34N 42°48' E 010°20'  

Dump ship's entire track history